Terminal Aerodrome Forecast
Issued by NWS

Home | Current Version | Previous Version | Text Only | Print | Product List | Glossary On
Versions: 1 2 3 4 5 6 7 8 9 10 11 12 13 14 15 16 17 18 19 20 21 22 23 24 25 26 27 28
537
FTUS45 KBOI 130540
TAFTWF
TAF
KTWF 130540Z 1306/1406 17007KT P6SM SCT150
     FM131500 24015KT P6SM VCSH OVC030
     FM131800 26015G25KT P6SM BKN035
     FM140100 22011KT P6SM OVC150=

USA.gov is the U.S. government's official web portal to all federal, state and local government web resources and services.